sensor_id;sensor_type;location;lat;lon;timestamp;pressure;altitude;pressure_sealevel;temperature;humidity
61568;BME280;47462;59.172;17.196;2024-01-25T00:00:32;99325.69;;;0.83;100.00
61568;BME280;47462;59.172;17.196;2024-01-25T00:02:58;99329.13;;;0.81;100.00
61568;BME280;47462;59.172;17.196;2024-01-25T00:05:23;99337.69;;;0.84;100.00
61568;BME280;47462;59.172;17.196;2024-01-25T00:07:49;99344.50;;;0.84;100.00
61568;BME280;47462;59.172;17.196;2024-01-25T00:10:16;99344.53;;;0.82;100.00
61568;BME280;47462;59.172;17.196;2024-01-25T00:12:41;99358.22;;;0.84;100.00
61568;BME280;47462;59.172;17.196;2024-01-25T00:15:08;99365.94;;;0.84;100.00
61568;BME280;47462;59.172;17.196;2024-01-25T00:17:34;99372.72;;;0.88;100.00
61568;BME280;47462;59.172;17.196;2024-01-25T00:19:59;99387.25;;;0.93;100.00
61568;BME280;47462;59.172;17.196;2024-01-25T00:22:24;99397.50;;;0.94;100.00
61568;BME280;47462;59.172;17.196;2024-01-25T00:24:50;99406.06;;;0.93;100.00
61568;BME280;47462;59.172;17.196;2024-01-25T00:27:15;99402.69;;;0.89;100.00
61568;BME280;47462;59.172;17.196;2024-01-25T00:29:41;99418.06;;;0.93;100.00
61568;BME280;47462;59.172;17.196;2024-01-25T00:32:06;99428.34;;;0.93;100.00
61568;BME280;47462;59.172;17.196;2024-01-25T00:34:32;99436.06;;;0.89;100.00
61568;BME280;47462;59.172;17.196;2024-01-25T00:36:57;99436.03;;;0.93;100.00
61568;BME280;47462;59.172;17.196;2024-01-25T00:39:23;99453.19;;;0.91;100.00
61568;BME280;47462;59.172;17.196;2024-01-25T00:41:51;99466.09;;;0.86;100.00
61568;BME280;47462;59.172;17.196;2024-01-25T00:44:16;99472.91;;;0.85;100.00
61568;BME280;47462;59.172;17.196;2024-01-25T00:46:42;99480.59;;;0.87;100.00
61568;BME280;47462;59.172;17.196;2024-01-25T00:49:08;99487.44;;;0.89;100.00
61568;BME280;47462;59.172;17.196;2024-01-25T00:51:34;99490.00;;;0.93;100.00
61568;BME280;47462;59.172;17.196;2024-01-25T00:54:01;99502.03;;;0.87;100.00
61568;BME280;47462;59.172;17.196;2024-01-25T00:56:28;99502.91;;;0.83;100.00
61568;BME280;47462;59.172;17.196;2024-01-25T00:58:53;99516.59;;;0.82;100.00
61568;BME280;47462;59.172;17.196;2024-01-25T01:01:21;99527.78;;;0.80;100.00
61568;BME280;47462;59.172;17.196;2024-01-25T01:03:48;99533.75;;;0.80;100.00
61568;BME280;47462;59.172;17.196;2024-01-25T01:06:19;99546.59;;;0.82;100.00
61568;BME280;47462;59.172;17.196;2024-01-25T01:08:45;99557.69;;;0.82;100.00
61568;BME280;47462;59.172;17.196;2024-01-25T01:11:11;99560.25;;;0.84;100.00
61568;BME280;47462;59.172;17.196;2024-01-25T01:13:36;99566.25;;;0.87;100.00
61568;BME280;47462;59.172;17.196;2024-01-25T01:16:01;99573.09;;;0.84;100.00
61568;BME280;47462;59.172;17.196;2024-01-25T01:18:27;99582.53;;;0.83;100.00
61568;BME280;47462;59.172;17.196;2024-01-25T01:20:52;99586.84;;;0.81;100.00
61568;BME280;47462;59.172;17.196;2024-01-25T01:23:18;99591.97;;;0.80;100.00
61568;BME280;47462;59.172;17.196;2024-01-25T01:25:43;99595.44;;;0.74;100.00
61568;BME280;47462;59.172;17.196;2024-01-25T01:28:08;99587.75;;;0.73;100.00
61568;BME280;47462;59.172;17.196;2024-01-25T01:30:34;99601.41;;;0.76;100.00
61568;BME280;47462;59.172;17.196;2024-01-25T01:32:59;99591.13;;;0.75;100.00
61568;BME280;47462;59.172;17.196;2024-01-25T01:35:24;99604.00;;;0.73;100.00
61568;BME280;47462;59.172;17.196;2024-01-25T01:37:50;99612.56;;;0.75;100.00
61568;BME280;47462;59.172;17.196;2024-01-25T01:40:15;99615.97;;;0.74;100.00
61568;BME280;47462;59.172;17.196;2024-01-25T01:42:40;99620.22;;;0.83;100.00
61568;BME280;47462;59.172;17.196;2024-01-25T01:45:06;99631.31;;;0.83;100.00
61568;BME280;47462;59.172;17.196;2024-01-25T01:47:31;99631.31;;;0.88;100.00
61568;BME280;47462;59.172;17.196;2024-01-25T01:49:57;99633.00;;;0.91;100.00
61568;BME280;47462;59.172;17.196;2024-01-25T01:52:23;99650.13;;;0.90;100.00
61568;BME280;47462;59.172;17.196;2024-01-25T01:54:49;99645.03;;;0.79;100.00
61568;BME280;47462;59.172;17.196;2024-01-25T01:57:14;99658.78;;;0.78;100.00
61568;BME280;47462;59.172;17.196;2024-01-25T01:59:40;99667.31;;;0.80;100.00
61568;BME280;47462;59.172;17.196;2024-01-25T02:02:05;99679.28;;;0.84;100.00
61568;BME280;47462;59.172;17.196;2024-01-25T02:04:32;99690.38;;;0.89;100.00
61568;BME280;47462;59.172;17.196;2024-01-25T02:06:57;99693.78;;;0.90;100.00
61568;BME280;47462;59.172;17.196;2024-01-25T02:09:23;99697.22;;;0.92;100.00
61568;BME280;47462;59.172;17.196;2024-01-25T02:11:59;99713.47;;;0.93;100.00
61568;BME280;47462;59.172;17.196;2024-01-25T02:14:24;99714.31;;;0.93;100.00
61568;BME280;47462;59.172;17.196;2024-01-25T02:16:49;99714.34;;;0.88;100.00
61568;BME280;47462;59.172;17.196;2024-01-25T02:19:14;99723.78;;;0.83;100.00
61568;BME280;47462;59.172;17.196;2024-01-25T02:21:40;99730.66;;;0.83;100.00
61568;BME280;47462;59.172;17.196;2024-01-25T02:24:06;99737.50;;;0.82;100.00
61568;BME280;47462;59.172;17.196;2024-01-25T02:26:31;99732.38;;;0.79;100.00
61568;BME280;47462;59.172;17.196;2024-01-25T02:28:57;99736.66;;;0.77;100.00
61568;BME280;47462;59.172;17.196;2024-01-25T02:31:22;99744.34;;;0.80;100.00
61568;BME280;47462;59.172;17.196;2024-01-25T02:33:47;99741.78;;;0.82;100.00
61568;BME280;47462;59.172;17.196;2024-01-25T02:36:13;99741.78;;;0.83;100.00
61568;BME280;47462;59.172;17.196;2024-01-25T02:38:38;99756.34;;;0.78;100.00
61568;BME280;47462;59.172;17.196;2024-01-25T02:41:04;99768.34;;;0.76;100.00
61568;BME280;47462;59.172;17.196;2024-01-25T02:43:30;99775.19;;;0.77;100.00
61568;BME280;47462;59.172;17.196;2024-01-25T02:45:55;99784.59;;;0.81;100.00
61568;BME280;47462;59.172;17.196;2024-01-25T02:48:21;99789.75;;;0.80;100.00
61568;BME280;47462;59.172;17.196;2024-01-25T02:50:46;99797.44;;;0.78;100.00
61568;BME280;47462;59.172;17.196;2024-01-25T02:53:12;99804.31;;;0.73;100.00
61568;BME280;47462;59.172;17.196;2024-01-25T02:55:37;99812.91;;;0.69;100.00
61568;BME280;47462;59.172;17.196;2024-01-25T02:58:03;99815.47;;;0.66;100.00
61568;BME280;47462;59.172;17.196;2024-01-25T03:00:28;99830.88;;;0.70;100.00
61568;BME280;47462;59.172;17.196;2024-01-25T03:02:54;99839.41;;;0.68;100.00
61568;BME280;47462;59.172;17.196;2024-01-25T03:05:19;99852.25;;;0.68;100.00
61568;BME280;47462;59.172;17.196;2024-01-25T03:07:45;99858.25;;;0.64;100.00
61568;BME280;47462;59.172;17.196;2024-01-25T03:10:10;99864.25;;;0.57;100.00
61568;BME280;47462;59.172;17.196;2024-01-25T03:12:36;99868.53;;;0.58;100.00
61568;BME280;47462;59.172;17.196;2024-01-25T03:15:02;99886.50;;;0.58;100.00
61568;BME280;47462;59.172;17.196;2024-01-25T03:17:27;99887.34;;;0.60;100.00
61568;BME280;47462;59.172;17.196;2024-01-25T03:19:52;99887.34;;;0.61;100.00
61568;BME280;47462;59.172;17.196;2024-01-25T03:22:18;99904.47;;;0.61;100.00
61568;BME280;47462;59.172;17.196;2024-01-25T03:24:43;99912.19;;;0.61;100.00
61568;BME280;47462;59.172;17.196;2024-01-25T03:27:08;99919.03;;;0.59;100.00
61568;BME280;47462;59.172;17.196;2024-01-25T03:29:41;99931.00;;;0.64;100.00
61568;BME280;47462;59.172;17.196;2024-01-25T03:32:06;99944.72;;;0.71;100.00
61568;BME280;47462;59.172;17.196;2024-01-25T03:34:31;99943.88;;;0.66;100.00
61568;BME280;47462;59.172;17.196;2024-01-25T03:36:58;99954.13;;;0.66;100.00
61568;BME280;47462;59.172;17.196;2024-01-25T03:39:24;99962.69;;;0.60;100.00
61568;BME280;47462;59.172;17.196;2024-01-25T03:41:50;99968.66;;;0.64;100.00
61568;BME280;47462;59.172;17.196;2024-01-25T03:44:15;99969.53;;;0.66;100.00
61568;BME280;47462;59.172;17.196;2024-01-25T03:46:41;99969.50;;;0.63;100.00
61568;BME280;47462;59.172;17.196;2024-01-25T03:49:06;99968.66;;;0.62;100.00
61568;BME280;47462;59.172;17.196;2024-01-25T03:51:31;99975.53;;;0.62;100.00
61568;BME280;47462;59.172;17.196;2024-01-25T03:53:56;99984.91;;;0.57;100.00
61568;BME280;47462;59.172;17.196;2024-01-25T03:56:23;99986.63;;;0.58;100.00
61568;BME280;47462;59.172;17.196;2024-01-25T03:58:49;99990.06;;;0.63;100.00
61568;BME280;47462;59.172;17.196;2024-01-25T04:01:14;99999.47;;;0.65;100.00
61568;BME280;47462;59.172;17.196;2024-01-25T04:03:40;99997.75;;;0.63;100.00
61568;BME280;47462;59.172;17.196;2024-01-25T04:06:05;99998.63;;;0.56;100.00
61568;BME280;47462;59.172;17.196;2024-01-25T04:08:30;100020.00;;;0.55;100.00
61568;BME280;47462;59.172;17.196;2024-01-25T04:10:56;100020.00;;;0.51;100.00
61568;BME280;47462;59.172;17.196;2024-01-25T04:13:21;100032.84;;;0.53;100.00
61568;BME280;47462;59.172;17.196;2024-01-25T04:15:47;100038.84;;;0.55;100.00
61568;BME280;47462;59.172;17.196;2024-01-25T04:18:12;100051.66;;;0.57;100.00
61568;BME280;47462;59.172;17.196;2024-01-25T04:20:38;100059.38;;;0.55;100.00
61568;BME280;47462;59.172;17.196;2024-01-25T04:23:03;100061.94;;;0.58;100.00
61568;BME280;47462;59.172;17.196;2024-01-25T04:25:29;100072.22;;;0.53;100.00
61568;BME280;47462;59.172;17.196;2024-01-25T04:27:54;100071.38;;;0.58;100.00
61568;BME280;47462;59.172;17.196;2024-01-25T04:30:19;100079.91;;;0.52;100.00
61568;BME280;47462;59.172;17.196;2024-01-25T04:32:45;100084.19;;;0.48;100.00
61568;BME280;47462;59.172;17.196;2024-01-25T04:35:10;100093.63;;;0.52;100.00
61568;BME280;47462;59.172;17.196;2024-01-25T04:37:36;100098.75;;;0.52;100.00
61568;BME280;47462;59.172;17.196;2024-01-25T04:40:02;100109.88;;;0.53;100.00
61568;BME280;47462;59.172;17.196;2024-01-25T04:42:28;100111.59;;;0.56;100.00
61568;BME280;47462;59.172;17.196;2024-01-25T04:44:54;100118.41;;;0.49;100.00
61568;BME280;47462;59.172;17.196;2024-01-25T04:47:20;100124.44;;;0.56;100.00
61568;BME280;47462;59.172;17.196;2024-01-25T04:49:45;100133.84;;;0.57;100.00
61568;BME280;47462;59.172;17.196;2024-01-25T04:52:11;100122.69;;;0.47;100.00
61568;BME280;47462;59.172;17.196;2024-01-25T04:54:37;100144.94;;;0.46;100.00
61568;BME280;47462;59.172;17.196;2024-01-25T04:57:02;100151.78;;;0.47;100.00
61568;BME280;47462;59.172;17.196;2024-01-25T04:59:32;100155.22;;;0.49;100.00
61568;BME280;47462;59.172;17.196;2024-01-25T05:01:58;100164.63;;;0.52;100.00
61568;BME280;47462;59.172;17.196;2024-01-25T05:04:23;100158.63;;;0.45;100.00
61568;BME280;47462;59.172;17.196;2024-01-25T05:06:49;100174.06;;;0.51;100.00
61568;BME280;47462;59.172;17.196;2024-01-25T05:09:14;100172.31;;;0.47;100.00
61568;BME280;47462;59.172;17.196;2024-01-25T05:11:40;100184.31;;;0.45;100.00
61568;BME280;47462;59.172;17.196;2024-01-25T05:14:05;100184.31;;;0.48;100.00
61568;BME280;47462;59.172;17.196;2024-01-25T05:16:31;100191.19;;;0.49;100.00
61568;BME280;47462;59.172;17.196;2024-01-25T05:18:57;100194.59;;;0.48;100.00
61568;BME280;47462;59.172;17.196;2024-01-25T05:21:22;100199.72;;;0.47;100.00
61568;BME280;47462;59.172;17.196;2024-01-25T05:23:47;100202.28;;;0.45;100.00
61568;BME280;47462;59.172;17.196;2024-01-25T05:26:13;100199.72;;;0.45;100.00
61568;BME280;47462;59.172;17.196;2024-01-25T05:28:39;100206.59;;;0.52;100.00
61568;BME280;47462;59.172;17.196;2024-01-25T05:31:04;100221.97;;;0.46;100.00
61568;BME280;47462;59.172;17.196;2024-01-25T05:33:29;100226.22;;;0.43;100.00
61568;BME280;47462;59.172;17.196;2024-01-25T05:35:55;100234.72;;;0.31;100.00
61568;BME280;47462;59.172;17.196;2024-01-25T05:38:20;100246.72;;;0.35;100.00
61568;BME280;47462;59.172;17.196;2024-01-25T05:40:46;100259.53;;;0.35;100.00
61568;BME280;47462;59.172;17.196;2024-01-25T05:43:11;100267.25;;;0.40;100.00
61568;BME280;47462;59.172;17.196;2024-01-25T05:45:36;100256.94;;;0.32;100.00
61568;BME280;47462;59.172;17.196;2024-01-25T05:48:02;100268.94;;;0.30;100.00
61568;BME280;47462;59.172;17.196;2024-01-25T05:50:27;100269.75;;;0.26;100.00
61568;BME280;47462;59.172;17.196;2024-01-25T05:52:53;100276.63;;;0.30;100.00
61568;BME280;47462;59.172;17.196;2024-01-25T05:55:18;100287.75;;;0.30;100.00
61568;BME280;47462;59.172;17.196;2024-01-25T05:57:43;100292.84;;;0.24;100.00
61568;BME280;47462;59.172;17.196;2024-01-25T06:00:15;100292.00;;;0.24;100.00
61568;BME280;47462;59.172;17.196;2024-01-25T06:02:41;100301.44;;;0.28;100.00
61568;BME280;47462;59.172;17.196;2024-01-25T06:05:08;100304.91;;;0.36;100.00
61568;BME280;47462;59.172;17.196;2024-01-25T06:07:34;100311.75;;;0.37;100.00
61568;BME280;47462;59.172;17.196;2024-01-25T06:09:59;100322.00;;;0.34;100.00
61568;BME280;47462;59.172;17.196;2024-01-25T06:12:25;100325.38;;;0.27;100.00
61568;BME280;47462;59.172;17.196;2024-01-25T06:14:50;100326.28;;;0.33;100.00
61568;BME280;47462;59.172;17.196;2024-01-25T06:17:17;100331.44;;;0.38;100.00
61568;BME280;47462;59.172;17.196;2024-01-25T06:19:43;100343.47;;;0.45;100.00
61568;BME280;47462;59.172;17.196;2024-01-25T06:22:09;100352.03;;;0.47;100.00
61568;BME280;47462;59.172;17.196;2024-01-25T06:24:39;100346.91;;;0.49;100.00
61568;BME280;47462;59.172;17.196;2024-01-25T06:27:05;100368.28;;;0.42;100.00
61568;BME280;47462;59.172;17.196;2024-01-25T06:29:31;100370.81;;;0.37;100.00
61568;BME280;47462;59.172;17.196;2024-01-25T06:31:58;100376.75;;;0.33;100.00
61568;BME280;47462;59.172;17.196;2024-01-25T06:34:24;100381.91;;;0.34;100.00
61568;BME280;47462;59.172;17.196;2024-01-25T06:36:49;100384.53;;;0.42;100.00
61568;BME280;47462;59.172;17.196;2024-01-25T06:39:15;100400.81;;;0.47;100.00
61568;BME280;47462;59.172;17.196;2024-01-25T06:41:41;100410.19;;;0.42;100.00
61568;BME280;47462;59.172;17.196;2024-01-25T06:44:07;100415.31;;;0.39;100.00
61568;BME280;47462;59.172;17.196;2024-01-25T06:46:33;100420.41;;;0.33;100.00
61568;BME280;47462;59.172;17.196;2024-01-25T06:48:58;100436.56;;;0.26;99.96
61568;BME280;47462;59.172;17.196;2024-01-25T06:51:24;100442.50;;;0.15;99.86
61568;BME280;47462;59.172;17.196;2024-01-25T06:53:49;100446.69;;;0.09;99.36
61568;BME280;47462;59.172;17.196;2024-01-25T06:56:15;100453.56;;;0.11;98.99
61568;BME280;47462;59.172;17.196;2024-01-25T06:58:41;100457.00;;;0.15;98.88
61568;BME280;47462;59.172;17.196;2024-01-25T07:01:06;100457.00;;;0.13;98.66
61568;BME280;47462;59.172;17.196;2024-01-25T07:03:31;100468.13;;;0.12;98.59
61568;BME280;47462;59.172;17.196;2024-01-25T07:05:57;100468.94;;;0.10;98.70
61568;BME280;47462;59.172;17.196;2024-01-25T07:08:22;100472.34;;;0.10;98.43
61568;BME280;47462;59.172;17.196;2024-01-25T07:10:49;100486.91;;;0.11;98.37
61568;BME280;47462;59.172;17.196;2024-01-25T07:13:15;100498.16;;;0.24;98.72
61568;BME280;47462;59.172;17.196;2024-01-25T07:15:42;100504.25;;;0.34;98.19
61568;BME280;47462;59.172;17.196;2024-01-25T07:18:08;100513.56;;;0.26;97.20
61568;BME280;47462;59.172;17.196;2024-01-25T07:20:33;100516.94;;;0.17;96.91
61568;BME280;47462;59.172;17.196;2024-01-25T07:22:59;100516.97;;;0.22;97.29
61568;BME280;47462;59.172;17.196;2024-01-25T07:25:25;100522.94;;;0.19;97.27
61568;BME280;47462;59.172;17.196;2024-01-25T07:27:51;100531.59;;;0.30;97.35
61568;BME280;47462;59.172;17.196;2024-01-25T07:30:17;100536.81;;;0.38;97.33
61568;BME280;47462;59.172;17.196;2024-01-25T07:32:44;100543.63;;;0.36;97.44
61568;BME280;47462;59.172;17.196;2024-01-25T07:35:12;100537.66;;;0.37;97.38
61568;BME280;47462;59.172;17.196;2024-01-25T07:37:41;100553.00;;;0.31;97.03
61568;BME280;47462;59.172;17.196;2024-01-25T07:40:08;100554.63;;;0.24;97.30
61568;BME280;47462;59.172;17.196;2024-01-25T07:42:33;100554.53;;;0.16;96.26
61568;BME280;47462;59.172;17.196;2024-01-25T07:44:59;100563.06;;;0.12;97.05
61568;BME280;47462;59.172;17.196;2024-01-25T07:47:26;100562.28;;;0.20;96.79
61568;BME280;47462;59.172;17.196;2024-01-25T07:49:51;100581.09;;;0.19;96.87
61568;BME280;47462;59.172;17.196;2024-01-25T07:52:17;100579.28;;;0.11;96.28
61568;BME280;47462;59.172;17.196;2024-01-25T07:54:43;100596.50;;;0.19;96.66
61568;BME280;47462;59.172;17.196;2024-01-25T07:57:10;100594.03;;;0.28;96.87
61568;BME280;47462;59.172;17.196;2024-01-25T07:59:35;100594.84;;;0.24;96.42
61568;BME280;47462;59.172;17.196;2024-01-25T08:02:01;100606.84;;;0.26;96.77
61568;BME280;47462;59.172;17.196;2024-01-25T08:04:26;100613.72;;;0.29;96.32
61568;BME280;47462;59.172;17.196;2024-01-25T08:06:52;100630.94;;;0.38;96.59
61568;BME280;47462;59.172;17.196;2024-01-25T08:09:18;100635.97;;;0.28;95.98
61568;BME280;47462;59.172;17.196;2024-01-25T08:11:44;100637.63;;;0.25;96.22
61568;BME280;47462;59.172;17.196;2024-01-25T08:14:10;100643.63;;;0.25;96.08
61568;BME280;47462;59.172;17.196;2024-01-25T08:16:36;100653.81;;;0.19;96.31
61568;BME280;47462;59.172;17.196;2024-01-25T08:19:02;100657.25;;;0.23;96.32
61568;BME280;47462;59.172;17.196;2024-01-25T08:21:28;100672.59;;;0.16;95.57
61568;BME280;47462;59.172;17.196;2024-01-25T08:23:53;100677.69;;;0.13;96.35
61568;BME280;47462;59.172;17.196;2024-01-25T08:26:18;100672.53;;;0.13;95.61
61568;BME280;47462;59.172;17.196;2024-01-25T08:28:44;100682.84;;;0.16;95.90
61568;BME280;47462;59.172;17.196;2024-01-25T08:31:10;100679.44;;;0.16;95.37
61568;BME280;47462;59.172;17.196;2024-01-25T08:33:35;100691.38;;;0.12;95.59
61568;BME280;47462;59.172;17.196;2024-01-25T08:36:01;100694.81;;;0.14;95.95
61568;BME280;47462;59.172;17.196;2024-01-25T08:38:27;100705.13;;;0.17;95.42
61568;BME280;47462;59.172;17.196;2024-01-25T08:40:53;100709.47;;;0.22;95.27
61568;BME280;47462;59.172;17.196;2024-01-25T08:43:18;100706.88;;;0.20;95.06
61568;BME280;47462;59.172;17.196;2024-01-25T08:45:44;100726.41;;;0.10;94.56
61568;BME280;47462;59.172;17.196;2024-01-25T08:48:09;100741.75;;;0.07;95.07
61568;BME280;47462;59.172;17.196;2024-01-25T08:50:35;100749.38;;;0.03;95.20
61568;BME280;47462;59.172;17.196;2024-01-25T08:53:01;100752.88;;;0.06;94.94
61568;BME280;47462;59.172;17.196;2024-01-25T08:55:27;100759.78;;;0.12;95.50
61568;BME280;47462;59.172;17.196;2024-01-25T08:57:53;100761.59;;;0.17;95.09
61568;BME280;47462;59.172;17.196;2024-01-25T09:00:19;100767.56;;;0.18;94.51
61568;BME280;47462;59.172;17.196;2024-01-25T09:02:45;100758.16;;;0.17;94.34
61568;BME280;47462;59.172;17.196;2024-01-25T09:05:10;100771.06;;;0.22;94.28
61568;BME280;47462;59.172;17.196;2024-01-25T09:07:37;100773.66;;;0.25;94.37
61568;BME280;47462;59.172;17.196;2024-01-25T09:10:04;100785.50;;;0.16;93.84
61568;BME280;47462;59.172;17.196;2024-01-25T09:12:30;100787.28;;;0.21;93.71
61568;BME280;47462;59.172;17.196;2024-01-25T09:14:56;100792.50;;;0.25;93.69
61568;BME280;47462;59.172;17.196;2024-01-25T09:17:22;100797.44;;;0.13;92.90
61568;BME280;47462;59.172;17.196;2024-01-25T09:19:48;100803.38;;;0.10;92.48
61568;BME280;47462;59.172;17.196;2024-01-25T09:22:15;100807.75;;;0.16;92.81
61568;BME280;47462;59.172;17.196;2024-01-25T09:24:43;100810.28;;;0.14;93.01
61568;BME280;47462;59.172;17.196;2024-01-25T09:27:08;100818.78;;;0.10;92.77
61568;BME280;47462;59.172;17.196;2024-01-25T09:29:34;100817.16;;;0.15;92.71
61568;BME280;47462;59.172;17.196;2024-01-25T09:31:59;100826.66;;;0.23;92.68
61568;BME280;47462;59.172;17.196;2024-01-25T09:34:25;100819.72;;;0.14;91.22
61568;BME280;47462;59.172;17.196;2024-01-25T09:36:51;100816.13;;;0.04;90.93
61568;BME280;47462;59.172;17.196;2024-01-25T09:39:16;100819.53;;;0.03;91.43
61568;BME280;47462;59.172;17.196;2024-01-25T09:41:42;100824.75;;;0.08;91.37
61568;BME280;47462;59.172;17.196;2024-01-25T09:44:08;100828.22;;;0.11;92.09
61568;BME280;47462;59.172;17.196;2024-01-25T09:46:34;100836.84;;;0.18;91.33
61568;BME280;47462;59.172;17.196;2024-01-25T09:49:03;100838.50;;;0.13;91.48
61568;BME280;47462;59.172;17.196;2024-01-25T09:51:37;100849.63;;;0.15;91.80
61568;BME280;47462;59.172;17.196;2024-01-25T09:54:04;100853.94;;;0.14;91.31
61568;BME280;47462;59.172;17.196;2024-01-25T09:56:32;100861.66;;;0.17;91.29
61568;BME280;47462;59.172;17.196;2024-01-25T09:58:58;100864.22;;;0.16;91.43
61568;BME280;47462;59.172;17.196;2024-01-25T10:01:23;100876.16;;;0.14;91.31
61568;BME280;47462;59.172;17.196;2024-01-25T10:03:49;100878.78;;;0.17;91.49
61568;BME280;47462;59.172;17.196;2024-01-25T10:06:16;100890.72;;;0.16;91.08
61568;BME280;47462;59.172;17.196;2024-01-25T10:08:42;100889.00;;;0.14;91.68
61568;BME280;47462;59.172;17.196;2024-01-25T10:11:07;100891.50;;;0.11;91.44
61568;BME280;47462;59.172;17.196;2024-01-25T10:13:41;100888.13;;;0.15;91.46
61568;BME280;47462;59.172;17.196;2024-01-25T10:16:07;100900.16;;;0.17;90.86
61568;BME280;47462;59.172;17.196;2024-01-25T10:18:35;100895.81;;;0.13;91.18
61568;BME280;47462;59.172;17.196;2024-01-25T10:21:01;100899.25;;;0.12;91.20
61568;BME280;47462;59.172;17.196;2024-01-25T10:23:28;100906.03;;;0.10;90.93
61568;BME280;47462;59.172;17.196;2024-01-25T10:25:53;100911.28;;;0.18;91.08
61568;BME280;47462;59.172;17.196;2024-01-25T10:28:19;100910.50;;;0.21;90.89
61568;BME280;47462;59.172;17.196;2024-01-25T10:30:44;100912.31;;;0.26;90.52
61568;BME280;47462;59.172;17.196;2024-01-25T10:33:10;100916.50;;;0.23;90.62
61568;BME280;47462;59.172;17.196;2024-01-25T10:35:37;100921.50;;;0.15;90.55
61568;BME280;47462;59.172;17.196;2024-01-25T10:38:03;100933.38;;;0.08;90.47
61568;BME280;47462;59.172;17.196;2024-01-25T10:40:29;100936.81;;;0.10;90.34
61568;BME280;47462;59.172;17.196;2024-01-25T10:42:54;100936.78;;;0.07;90.44
61568;BME280;47462;59.172;17.196;2024-01-25T10:45:20;100931.63;;;0.07;90.33
61568;BME280;47462;59.172;17.196;2024-01-25T10:47:48;100943.75;;;0.14;90.85
61568;BME280;47462;59.172;17.196;2024-01-25T10:50:13;100955.09;;;0.27;91.01
61568;BME280;47462;59.172;17.196;2024-01-25T10:52:40;100948.19;;;0.23;89.99
61568;BME280;47462;59.172;17.196;2024-01-25T10:55:06;100955.03;;;0.24;89.92
61568;BME280;47462;59.172;17.196;2024-01-25T10:57:39;100958.56;;;0.29;89.67
61568;BME280;47462;59.172;17.196;2024-01-25T11:00:10;100952.38;;;0.20;89.66
61568;BME280;47462;59.172;17.196;2024-01-25T11:02:37;100955.00;;;0.23;90.04
61568;BME280;47462;59.172;17.196;2024-01-25T11:05:14;100968.06;;;0.35;89.53
61568;BME280;47462;59.172;17.196;2024-01-25T11:07:47;100971.75;;;0.51;89.62
61568;BME280;47462;59.172;17.196;2024-01-25T11:10:24;100978.56;;;0.49;89.01
61568;BME280;47462;59.172;17.196;2024-01-25T11:13:00;100971.50;;;0.35;88.73
61568;BME280;47462;59.172;17.196;2024-01-25T11:15:36;100973.06;;;0.29;88.71
61568;BME280;47462;59.172;17.196;2024-01-25T11:18:04;100975.53;;;0.23;89.26
61568;BME280;47462;59.172;17.196;2024-01-25T11:20:34;100978.22;;;0.29;89.34
61568;BME280;47462;59.172;17.196;2024-01-25T11:23:03;100981.78;;;0.35;89.53
61568;BME280;47462;59.172;17.196;2024-01-25T11:25:31;100997.16;;;0.34;89.06
61568;BME280;47462;59.172;17.196;2024-01-25T11:27:57;100993.78;;;0.38;89.33
61568;BME280;47462;59.172;17.196;2024-01-25T11:30:23;100984.41;;;0.40;89.69
61568;BME280;47462;59.172;17.196;2024-01-25T11:32:49;101001.75;;;0.53;89.76
61568;BME280;47462;59.172;17.196;2024-01-25T11:35:15;101009.56;;;0.60;89.54
61568;BME280;47462;59.172;17.196;2024-01-25T11:37:48;101010.53;;;0.66;89.12
61568;BME280;47462;59.172;17.196;2024-01-25T11:40:15;101018.22;;;0.65;89.03
61568;BME280;47462;59.172;17.196;2024-01-25T11:42:42;101016.47;;;0.64;88.62
61568;BME280;47462;59.172;17.196;2024-01-25T11:45:10;101023.34;;;0.65;88.42
61568;BME280;47462;59.172;17.196;2024-01-25T11:47:37;101025.19;;;0.72;88.17
61568;BME280;47462;59.172;17.196;2024-01-25T11:50:04;101025.97;;;0.66;87.79
61568;BME280;47462;59.172;17.196;2024-01-25T11:52:31;101025.84;;;0.60;87.64
61568;BME280;47462;59.172;17.196;2024-01-25T11:55:08;101027.53;;;0.60;87.47
61568;BME280;47462;59.172;17.196;2024-01-25T11:57:40;101032.66;;;0.60;87.22
61568;BME280;47462;59.172;17.196;2024-01-25T12:00:13;101043.81;;;0.59;87.36
61568;BME280;47462;59.172;17.196;2024-01-25T12:02:40;101051.44;;;0.56;87.74
61568;BME280;47462;59.172;17.196;2024-01-25T12:05:06;101048.88;;;0.56;87.85
61568;BME280;47462;59.172;17.196;2024-01-25T12:07:32;101053.13;;;0.55;87.41
61568;BME280;47462;59.172;17.196;2024-01-25T12:10:04;101065.88;;;0.49;87.54
61568;BME280;47462;59.172;17.196;2024-01-25T12:12:30;101068.06;;;0.29;87.30
61568;BME280;47462;59.172;17.196;2024-01-25T12:15:00;101079.38;;;0.37;87.93
61568;BME280;47462;59.172;17.196;2024-01-25T12:17:29;101071.69;;;0.39;88.11
61568;BME280;47462;59.172;17.196;2024-01-25T12:19:58;101081.13;;;0.41;87.43
61568;BME280;47462;59.172;17.196;2024-01-25T12:22:27;101080.41;;;0.48;87.65
61568;BME280;47462;59.172;17.196;2024-01-25T12:24:57;101078.72;;;0.50;87.18
61568;BME280;47462;59.172;17.196;2024-01-25T12:27:24;101078.84;;;0.57;87.22
61568;BME280;47462;59.172;17.196;2024-01-25T12:29:53;101091.53;;;0.49;86.78
61568;BME280;47462;59.172;17.196;2024-01-25T12:32:19;101109.78;;;0.63;87.55
61568;BME280;47462;59.172;17.196;2024-01-25T12:34:55;101104.63;;;0.63;87.25
61568;BME280;47462;59.172;17.196;2024-01-25T12:37:20;101100.28;;;0.57;87.03
61568;BME280;47462;59.172;17.196;2024-01-25T12:39:46;101105.06;;;0.39;86.96
61568;BME280;47462;59.172;17.196;2024-01-25T12:42:11;101105.28;;;0.49;87.36